sensor_id;sensor_type;location;lat;lon;timestamp;temperature;humidity
9941;DHT22;5009;50.656;7.188;2024-02-23T05:02:21;5.00;99.90
9941;DHT22;5009;50.656;7.188;2024-02-23T05:04:46;5.00;99.90
9941;DHT22;5009;50.656;7.188;2024-02-23T05:07:12;5.00;99.90
9941;DHT22;5009;50.656;7.188;2024-02-23T05:09:38;5.00;99.90
9941;DHT22;5009;50.656;7.188;2024-02-23T05:12:07;5.00;99.90
9941;DHT22;5009;50.656;7.188;2024-02-23T05:14:32;5.00;99.90
9941;DHT22;5009;50.656;7.188;2024-02-23T05:16:58;5.00;99.90
9941;DHT22;5009;50.656;7.188;2024-02-23T05:19:23;5.00;99.90
9941;DHT22;5009;50.656;7.188;2024-02-23T05:21:49;4.90;99.90
9941;DHT22;5009;50.656;7.188;2024-02-23T05:24:15;5.00;99.90
9941;DHT22;5009;50.656;7.188;2024-02-23T05:26:40;5.00;99.90
9941;DHT22;5009;50.656;7.188;2024-02-23T05:29:06;5.00;99.90
9941;DHT22;5009;50.656;7.188;2024-02-23T05:31:51;5.10;99.90
9941;DHT22;5009;50.656;7.188;2024-02-23T05:34:18;5.10;99.90
9941;DHT22;5009;50.656;7.188;2024-02-23T05:36:45;5.10;99.90
9941;DHT22;5009;50.656;7.188;2024-02-23T05:39:14;5.10;99.90
9941;DHT22;5009;50.656;7.188;2024-02-23T05:41:41;5.20;99.90
9941;DHT22;5009;50.656;7.188;2024-02-23T05:44:07;5.10;99.90
9941;DHT22;5009;50.656;7.188;2024-02-23T05:46:33;5.10;99.90
9941;DHT22;5009;50.656;7.188;2024-02-23T05:48:59;5.10;99.90
9941;DHT22;5009;50.656;7.188;2024-02-23T05:51:25;5.10;99.90
9941;DHT22;5009;50.656;7.188;2024-02-23T05:53:50;5.10;99.90
9941;DHT22;5009;50.656;7.188;2024-02-23T05:56:16;5.10;99.90
9941;DHT22;5009;50.656;7.188;2024-02-23T05:58:41;5.10;99.90
9941;DHT22;5009;50.656;7.188;2024-02-23T06:01:07;5.10;99.90
9941;DHT22;5009;50.656;7.188;2024-02-23T06:03:32;5.10;99.90
9941;DHT22;5009;50.656;7.188;2024-02-23T06:05:58;5.10;99.80
9941;DHT22;5009;50.656;7.188;2024-02-23T06:08:24;5.10;99.90
9941;DHT22;5009;50.656;7.188;2024-02-23T06:10:49;5.10;99.90
9941;DHT22;5009;50.656;7.188;2024-02-23T06:13:15;5.20;99.90
9941;DHT22;5009;50.656;7.188;2024-02-23T06:15:40;5.20;99.90
9941;DHT22;5009;50.656;7.188;2024-02-23T06:18:07;5.30;99.90
9941;DHT22;5009;50.656;7.188;2024-02-23T06:20:33;5.30;99.90
9941;DHT22;5009;50.656;7.188;2024-02-23T06:22:58;5.30;99.60
9941;DHT22;5009;50.656;7.188;2024-02-23T06:25:24;5.30;99.70
9941;DHT22;5009;50.656;7.188;2024-02-23T06:27:49;5.40;99.80
9941;DHT22;5009;50.656;7.188;2024-02-23T06:30:15;5.40;99.80
9941;DHT22;5009;50.656;7.188;2024-02-23T06:32:40;5.50;99.30
9941;DHT22;5009;50.656;7.188;2024-02-23T06:35:06;5.50;99.10
9941;DHT22;5009;50.656;7.188;2024-02-23T06:37:33;5.50;98.90
9941;DHT22;5009;50.656;7.188;2024-02-23T06:39:58;5.60;99.00
9941;DHT22;5009;50.656;7.188;2024-02-23T06:42:25;5.60;99.10
9941;DHT22;5009;50.656;7.188;2024-02-23T06:44:50;5.60;98.90
9941;DHT22;5009;50.656;7.188;2024-02-23T06:47:16;5.60;98.50
9941;DHT22;5009;50.656;7.188;2024-02-23T06:49:42;5.60;98.50
9941;DHT22;5009;50.656;7.188;2024-02-23T06:52:09;5.60;98.50
9941;DHT22;5009;50.656;7.188;2024-02-23T06:54:34;5.70;98.30
9941;DHT22;5009;50.656;7.188;2024-02-23T06:57:00;5.70;97.90
9941;DHT22;5009;50.656;7.188;2024-02-23T06:59:26;5.70;97.80
9941;DHT22;5009;50.656;7.188;2024-02-23T07:01:52;5.80;97.90
9941;DHT22;5009;50.656;7.188;2024-02-23T07:04:17;5.80;97.60
9941;DHT22;5009;50.656;7.188;2024-02-23T07:06:43;5.90;97.60
9941;DHT22;5009;50.656;7.188;2024-02-23T07:09:09;5.90;97.40
9941;DHT22;5009;50.656;7.188;2024-02-23T07:11:37;6.00;97.10
9941;DHT22;5009;50.656;7.188;2024-02-23T07:14:02;6.00;96.80
9941;DHT22;5009;50.656;7.188;2024-02-23T07:16:28;6.10;96.70
9941;DHT22;5009;50.656;7.188;2024-02-23T07:18:53;6.20;96.40
9941;DHT22;5009;50.656;7.188;2024-02-23T07:21:20;6.20;95.60
9941;DHT22;5009;50.656;7.188;2024-02-23T07:23:46;6.20;95.90
9941;DHT22;5009;50.656;7.188;2024-02-23T07:26:11;6.30;95.90
9941;DHT22;5009;50.656;7.188;2024-02-23T07:28:37;6.40;95.60
9941;DHT22;5009;50.656;7.188;2024-02-23T07:31:02;6.40;95.30
9941;DHT22;5009;50.656;7.188;2024-02-23T07:33:28;6.40;95.10
9941;DHT22;5009;50.656;7.188;2024-02-23T07:35:54;6.50;95.10
9941;DHT22;5009;50.656;7.188;2024-02-23T07:38:19;6.50;95.10
9941;DHT22;5009;50.656;7.188;2024-02-23T07:40:45;6.50;94.80
9941;DHT22;5009;50.656;7.188;2024-02-23T07:43:10;6.60;95.00
9941;DHT22;5009;50.656;7.188;2024-02-23T07:45:36;6.70;95.20
9941;DHT22;5009;50.656;7.188;2024-02-23T07:48:03;6.70;94.80
9941;DHT22;5009;50.656;7.188;2024-02-23T07:50:28;6.90;95.10
9941;DHT22;5009;50.656;7.188;2024-02-23T07:52:54;7.20;93.80
9941;DHT22;5009;50.656;7.188;2024-02-23T07:55:19;7.30;93.60
9941;DHT22;5009;50.656;7.188;2024-02-23T07:57:45;7.30;93.30
9941;DHT22;5009;50.656;7.188;2024-02-23T08:00:11;7.40;93.90
9941;DHT22;5009;50.656;7.188;2024-02-23T08:02:37;7.80;93.80
9941;DHT22;5009;50.656;7.188;2024-02-23T08:05:03;8.40;92.60
9941;DHT22;5009;50.656;7.188;2024-02-23T08:07:29;8.50;91.50
9941;DHT22;5009;50.656;7.188;2024-02-23T08:09:56;8.60;91.60
9941;DHT22;5009;50.656;7.188;2024-02-23T08:12:22;8.80;91.00
9941;DHT22;5009;50.656;7.188;2024-02-23T08:14:48;8.70;90.30
9941;DHT22;5009;50.656;7.188;2024-02-23T08:17:15;8.80;90.70
9941;DHT22;5009;50.656;7.188;2024-02-23T08:19:41;8.80;90.60
9941;DHT22;5009;50.656;7.188;2024-02-23T08:22:07;9.30;90.30
9941;DHT22;5009;50.656;7.188;2024-02-23T08:24:32;9.40;89.20
9941;DHT22;5009;50.656;7.188;2024-02-23T08:26:58;9.00;89.20
9941;DHT22;5009;50.656;7.188;2024-02-23T08:29:23;8.80;90.00
9941;DHT22;5009;50.656;7.188;2024-02-23T08:31:49;8.80;90.40
9941;DHT22;5009;50.656;7.188;2024-02-23T08:34:14;8.70;90.20
9941;DHT22;5009;50.656;7.188;2024-02-23T08:36:40;8.80;90.40
9941;DHT22;5009;50.656;7.188;2024-02-23T08:39:05;8.70;90.10
9941;DHT22;5009;50.656;7.188;2024-02-23T08:41:32;8.70;90.10
9941;DHT22;5009;50.656;7.188;2024-02-23T08:43:57;8.60;90.20
9941;DHT22;5009;50.656;7.188;2024-02-23T08:46:23;8.50;90.60
9941;DHT22;5009;50.656;7.188;2024-02-23T08:48:48;8.50;90.20
9941;DHT22;5009;50.656;7.188;2024-02-23T08:51:14;8.60;90.80
9941;DHT22;5009;50.656;7.188;2024-02-23T08:53:40;8.70;90.70
9941;DHT22;5009;50.656;7.188;2024-02-23T08:56:07;8.30;90.30
9941;DHT22;5009;50.656;7.188;2024-02-23T08:58:33;8.50;90.50
9941;DHT22;5009;50.656;7.188;2024-02-23T09:00:58;8.80;90.30
9941;DHT22;5009;50.656;7.188;2024-02-23T09:03:24;8.90;90.40
9941;DHT22;5009;50.656;7.188;2024-02-23T09:05:50;9.10;90.70
9941;DHT22;5009;50.656;7.188;2024-02-23T09:08:15;9.20;90.50
9941;DHT22;5009;50.656;7.188;2024-02-23T09:10:41;9.20;90.00
9941;DHT22;5009;50.656;7.188;2024-02-23T09:13:06;9.30;90.20
9941;DHT22;5009;50.656;7.188;2024-02-23T09:15:32;9.10;89.60
9941;DHT22;5009;50.656;7.188;2024-02-23T09:17:57;8.80;89.40
9941;DHT22;5009;50.656;7.188;2024-02-23T09:20:23;8.80;90.30
9941;DHT22;5009;50.656;7.188;2024-02-23T09:22:49;8.90;90.50
9941;DHT22;5009;50.656;7.188;2024-02-23T09:25:14;8.90;89.70
9941;DHT22;5009;50.656;7.188;2024-02-23T09:27:40;8.70;90.00
9941;DHT22;5009;50.656;7.188;2024-02-23T09:30:13;8.60;90.20
9941;DHT22;5009;50.656;7.188;2024-02-23T09:32:39;8.60;90.40
9941;DHT22;5009;50.656;7.188;2024-02-23T09:35:05;8.70;90.40
9941;DHT22;5009;50.656;7.188;2024-02-23T09:37:32;8.80;90.70
9941;DHT22;5009;50.656;7.188;2024-02-23T09:39:57;8.80;91.10
9941;DHT22;5009;50.656;7.188;2024-02-23T09:42:23;9.00;91.10
9941;DHT22;5009;50.656;7.188;2024-02-23T09:44:59;9.10;91.10
9941;DHT22;5009;50.656;7.188;2024-02-23T09:47:27;9.10;90.70
9941;DHT22;5009;50.656;7.188;2024-02-23T09:49:54;9.20;90.90
9941;DHT22;5009;50.656;7.188;2024-02-23T09:52:20;9.20;91.20
9941;DHT22;5009;50.656;7.188;2024-02-23T09:54:46;9.10;91.20
9941;DHT22;5009;50.656;7.188;2024-02-23T09:57:14;9.10;90.90
9941;DHT22;5009;50.656;7.188;2024-02-23T09:59:41;9.10;90.70
9941;DHT22;5009;50.656;7.188;2024-02-23T10:02:08;9.30;91.10
9941;DHT22;5009;50.656;7.188;2024-02-23T10:04:38;9.30;91.30
9941;DHT22;5009;50.656;7.188;2024-02-23T10:07:05;9.30;91.40
9941;DHT22;5009;50.656;7.188;2024-02-23T10:09:31;9.20;91.90
9941;DHT22;5009;50.656;7.188;2024-02-23T10:11:57;9.30;92.00
9941;DHT22;5009;50.656;7.188;2024-02-23T10:14:22;9.30;91.70
9941;DHT22;5009;50.656;7.188;2024-02-23T10:16:48;9.40;91.90
9941;DHT22;5009;50.656;7.188;2024-02-23T10:19:21;9.70;92.10
9941;DHT22;5009;50.656;7.188;2024-02-23T10:21:47;9.90;91.60
9941;DHT22;5009;50.656;7.188;2024-02-23T10:24:16;10.10;91.30
9941;DHT22;5009;50.656;7.188;2024-02-23T10:26:42;10.20;90.80
9941;DHT22;5009;50.656;7.188;2024-02-23T10:29:08;10.30;91.20
9941;DHT22;5009;50.656;7.188;2024-02-23T10:31:36;10.50;91.20
9941;DHT22;5009;50.656;7.188;2024-02-23T10:34:07;10.30;88.20
9941;DHT22;5009;50.656;7.188;2024-02-23T10:36:36;10.30;89.00
9941;DHT22;5009;50.656;7.188;2024-02-23T10:39:04;10.30;89.00
9941;DHT22;5009;50.656;7.188;2024-02-23T10:41:34;10.20;88.70
9941;DHT22;5009;50.656;7.188;2024-02-23T10:44:01;10.20;88.30
9941;DHT22;5009;50.656;7.188;2024-02-23T10:46:31;10.20;88.30
9941;DHT22;5009;50.656;7.188;2024-02-23T10:48:58;10.20;89.00
9941;DHT22;5009;50.656;7.188;2024-02-23T10:51:28;10.20;88.80
9941;DHT22;5009;50.656;7.188;2024-02-23T10:53:55;10.20;88.10
9941;DHT22;5009;50.656;7.188;2024-02-23T10:56:21;10.10;88.50
9941;DHT22;5009;50.656;7.188;2024-02-23T10:58:48;10.20;88.30
9941;DHT22;5009;50.656;7.188;2024-02-23T11:01:14;10.20;87.50
9941;DHT22;5009;50.656;7.188;2024-02-23T11:03:42;10.40;88.20
9941;DHT22;5009;50.656;7.188;2024-02-23T11:06:08;10.40;87.80
9941;DHT22;5009;50.656;7.188;2024-02-23T11:08:34;10.50;87.80
9941;DHT22;5009;50.656;7.188;2024-02-23T11:11:09;10.50;87.70
9941;DHT22;5009;50.656;7.188;2024-02-23T11:13:39;10.40;88.50
9941;DHT22;5009;50.656;7.188;2024-02-23T11:16:08;10.40;89.50
9941;DHT22;5009;50.656;7.188;2024-02-23T11:18:39;10.10;90.70
9941;DHT22;5009;50.656;7.188;2024-02-23T11:21:05;9.80;92.40
9941;DHT22;5009;50.656;7.188;2024-02-23T11:23:45;9.90;93.40
9941;DHT22;5009;50.656;7.188;2024-02-23T11:26:14;10.00;92.90
9941;DHT22;5009;50.656;7.188;2024-02-23T11:31:15;10.00;93.30
9941;DHT22;5009;50.656;7.188;2024-02-23T11:33:51;10.30;93.80
9941;DHT22;5009;50.656;7.188;2024-02-23T11:36:34;10.30;92.60
9941;DHT22;5009;50.656;7.188;2024-02-23T11:39:01;10.00;91.40
9941;DHT22;5009;50.656;7.188;2024-02-23T11:41:28;9.90;92.20
9941;DHT22;5009;50.656;7.188;2024-02-23T11:43:54;10.00;91.60
9941;DHT22;5009;50.656;7.188;2024-02-23T11:46:21;10.00;90.90
9941;DHT22;5009;50.656;7.188;2024-02-23T11:48:48;9.80;91.10
9941;DHT22;5009;50.656;7.188;2024-02-23T11:51:19;9.90;90.90
9941;DHT22;5009;50.656;7.188;2024-02-23T11:53:46;10.10;90.20
9941;DHT22;5009;50.656;7.188;2024-02-23T11:56:12;10.30;90.50
9941;DHT22;5009;50.656;7.188;2024-02-23T11:58:39;10.40;90.30
9941;DHT22;5009;50.656;7.188;2024-02-23T12:01:04;10.30;89.30
9941;DHT22;5009;50.656;7.188;2024-02-23T12:03:32;10.30;90.20
9941;DHT22;5009;50.656;7.188;2024-02-23T12:05:58;10.10;90.30
9941;DHT22;5009;50.656;7.188;2024-02-23T12:08:27;10.20;90.40
9941;DHT22;5009;50.656;7.188;2024-02-23T12:10:55;10.30;90.10
9941;DHT22;5009;50.656;7.188;2024-02-23T12:13:21;10.30;90.20
9941;DHT22;5009;50.656;7.188;2024-02-23T12:15:47;10.40;90.30
9941;DHT22;5009;50.656;7.188;2024-02-23T12:18:13;10.50;90.10
9941;DHT22;5009;50.656;7.188;2024-02-23T12:20:40;10.40;90.00
9941;DHT22;5009;50.656;7.188;2024-02-23T12:23:05;10.30;90.00
9941;DHT22;5009;50.656;7.188;2024-02-23T12:25:33;10.30;90.10
9941;DHT22;5009;50.656;7.188;2024-02-23T12:27:59;10.40;90.20
9941;DHT22;5009;50.656;7.188;2024-02-23T12:30:26;10.30;89.70
9941;DHT22;5009;50.656;7.188;2024-02-23T12:33:03;10.30;88.50
9941;DHT22;5009;50.656;7.188;2024-02-23T12:35:29;10.50;89.40
9941;DHT22;5009;50.656;7.188;2024-02-23T12:37:55;10.50;89.70
9941;DHT22;5009;50.656;7.188;2024-02-23T12:40:20;10.70;89.00
9941;DHT22;5009;50.656;7.188;2024-02-23T12:42:46;10.60;88.90
9941;DHT22;5009;50.656;7.188;2024-02-23T12:45:14;10.70;89.90
9941;DHT22;5009;50.656;7.188;2024-02-23T12:47:39;10.60;89.90
9941;DHT22;5009;50.656;7.188;2024-02-23T12:50:06;10.80;90.30
9941;DHT22;5009;50.656;7.188;2024-02-23T12:52:33;11.10;90.40
9941;DHT22;5009;50.656;7.188;2024-02-23T12:54:59;11.20;89.50
9941;DHT22;5009;50.656;7.188;2024-02-23T12:57:24;11.10;88.90
9941;DHT22;5009;50.656;7.188;2024-02-23T12:59:50;10.80;87.40
9941;DHT22;5009;50.656;7.188;2024-02-23T13:02:16;10.80;87.70
9941;DHT22;5009;50.656;7.188;2024-02-23T13:04:42;10.90;87.60
9941;DHT22;5009;50.656;7.188;2024-02-23T13:07:11;10.80;86.40
9941;DHT22;5009;50.656;7.188;2024-02-23T13:09:37;10.70;86.90
9941;DHT22;5009;50.656;7.188;2024-02-23T13:12:03;10.80;86.90
9941;DHT22;5009;50.656;7.188;2024-02-23T13:14:29;10.90;87.50
9941;DHT22;5009;50.656;7.188;2024-02-23T13:16:55;10.90;88.00
9941;DHT22;5009;50.656;7.188;2024-02-23T13:19:20;11.00;89.60
9941;DHT22;5009;50.656;7.188;2024-02-23T13:21:46;11.00;90.60
9941;DHT22;5009;50.656;7.188;2024-02-23T13:24:11;11.20;90.60
9941;DHT22;5009;50.656;7.188;2024-02-23T13:26:37;11.20;90.30
9941;DHT22;5009;50.656;7.188;2024-02-23T13:29:02;11.30;90.10
9941;DHT22;5009;50.656;7.188;2024-02-23T13:31:29;11.00;88.10
9941;DHT22;5009;50.656;7.188;2024-02-23T13:33:54;11.00;88.30
9941;DHT22;5009;50.656;7.188;2024-02-23T13:36:20;10.90;88.00
9941;DHT22;5009;50.656;7.188;2024-02-23T13:38:46;10.90;87.90
9941;DHT22;5009;50.656;7.188;2024-02-23T13:41:11;10.90;88.50
9941;DHT22;5009;50.656;7.188;2024-02-23T13:43:37;10.80;87.70
9941;DHT22;5009;50.656;7.188;2024-02-23T13:46:03;10.70;86.90
9941;DHT22;5009;50.656;7.188;2024-02-23T13:48:29;10.80;87.20
9941;DHT22;5009;50.656;7.188;2024-02-23T13:50:55;10.90;86.70
9941;DHT22;5009;50.656;7.188;2024-02-23T13:53:20;10.90;85.60
9941;DHT22;5009;50.656;7.188;2024-02-23T13:55:46;10.80;85.50
9941;DHT22;5009;50.656;7.188;2024-02-23T13:58:11;10.60;87.00
9941;DHT22;5009;50.656;7.188;2024-02-23T14:00:37;10.60;86.80
9941;DHT22;5009;50.656;7.188;2024-02-23T14:03:03;10.60;86.70
9941;DHT22;5009;50.656;7.188;2024-02-23T14:05:29;10.60;86.10
9941;DHT22;5009;50.656;7.188;2024-02-23T14:07:54;10.60;87.00
9941;DHT22;5009;50.656;7.188;2024-02-23T14:10:20;10.60;88.00
9941;DHT22;5009;50.656;7.188;2024-02-23T14:12:46;10.60;88.30
9941;DHT22;5009;50.656;7.188;2024-02-23T14:15:11;10.50;88.30
9941;DHT22;5009;50.656;7.188;2024-02-23T14:17:38;10.50;89.00
9941;DHT22;5009;50.656;7.188;2024-02-23T14:20:04;10.50;89.70
9941;DHT22;5009;50.656;7.188;2024-02-23T14:22:30;10.30;89.30
9941;DHT22;5009;50.656;7.188;2024-02-23T14:24:56;10.30;90.10
9941;DHT22;5009;50.656;7.188;2024-02-23T14:27:21;10.20;89.80
9941;DHT22;5009;50.656;7.188;2024-02-23T14:29:47;10.00;89.50
9941;DHT22;5009;50.656;7.188;2024-02-23T14:32:16;10.00;90.00
9941;DHT22;5009;50.656;7.188;2024-02-23T14:34:42;10.10;90.60
9941;DHT22;5009;50.656;7.188;2024-02-23T14:37:08;10.10;90.30
9941;DHT22;5009;50.656;7.188;2024-02-23T14:39:33;10.00;90.00
9941;DHT22;5009;50.656;7.188;2024-02-23T14:42:00;10.00;90.00
9941;DHT22;5009;50.656;7.188;2024-02-23T14:44:26;9.90;91.10
9941;DHT22;5009;50.656;7.188;2024-02-23T14:46:52;9.80;91.30
9941;DHT22;5009;50.656;7.188;2024-02-23T14:49:18;9.70;91.70
9941;DHT22;5009;50.656;7.188;2024-02-23T14:51:44;9.80;91.80
9941;DHT22;5009;50.656;7.188;2024-02-23T14:54:11;9.60;91.90
9941;DHT22;5009;50.656;7.188;2024-02-23T14:56:37;9.70;92.30
9941;DHT22;5009;50.656;7.188;2024-02-23T14:59:03;9.50;92.30
9941;DHT22;5009;50.656;7.188;2024-02-23T15:01:28;9.60;93.00
9941;DHT22;5009;50.656;7.188;2024-02-23T15:03:54;9.60;92.70
9941;DHT22;5009;50.656;7.188;2024-02-23T15:06:19;9.50;92.70
9941;DHT22;5009;50.656;7.188;2024-02-23T15:08:48;9.40;92.90
9941;DHT22;5009;50.656;7.188;2024-02-23T15:11:13;9.30;93.10
9941;DHT22;5009;50.656;7.188;2024-02-23T15:13:39;9.30;93.50
9941;DHT22;5009;50.656;7.188;2024-02-23T15:16:05;9.20;93.80
9941;DHT22;5009;50.656;7.188;2024-02-23T15:18:31;9.20;93.90
9941;DHT22;5009;50.656;7.188;2024-02-23T15:20:56;9.20;94.00
9941;DHT22;5009;50.656;7.188;2024-02-23T15:23:22;9.20;94.20
9941;DHT22;5009;50.656;7.188;2024-02-23T15:25:49;9.10;94.30
9941;DHT22;5009;50.656;7.188;2024-02-23T15:28:15;9.20;94.20
9941;DHT22;5009;50.656;7.188;2024-02-23T15:30:48;9.10;94.00
9941;DHT22;5009;50.656;7.188;2024-02-23T15:33:14;9.10;94.00
9941;DHT22;5009;50.656;7.188;2024-02-23T15:35:40;9.10;94.00
9941;DHT22;5009;50.656;7.188;2024-02-23T15:38:05;9.00;94.00
9941;DHT22;5009;50.656;7.188;2024-02-23T15:40:31;9.10;94.10
9941;DHT22;5009;50.656;7.188;2024-02-23T15:42:56;9.10;94.00
9941;DHT22;5009;50.656;7.188;2024-02-23T15:45:22;9.10;94.20
9941;DHT22;5009;50.656;7.188;2024-02-23T15:47:48;9.10;94.00
9941;DHT22;5009;50.656;7.188;2024-02-23T15:50:14;9.00;94.30
9941;DHT22;5009;50.656;7.188;2024-02-23T15:52:39;8.90;94.40
9941;DHT22;5009;50.656;7.188;2024-02-23T15:55:05;8.90;95.20
9941;DHT22;5009;50.656;7.188;2024-02-23T15:57:36;9.00;95.10
9941;DHT22;5009;50.656;7.188;2024-02-23T16:00:02;9.00;94.70
9941;DHT22;5009;50.656;7.188;2024-02-23T16:02:29;9.00;94.60
9941;DHT22;5009;50.656;7.188;2024-02-23T16:04:55;9.00;94.70
9941;DHT22;5009;50.656;7.188;2024-02-23T16:07:20;9.00;94.60
9941;DHT22;5009;50.656;7.188;2024-02-23T16:09:46;9.00;94.80
9941;DHT22;5009;50.656;7.188;2024-02-23T16:12:13;9.00;94.90
9941;DHT22;5009;50.656;7.188;2024-02-23T16:14:39;9.00;95.00
9941;DHT22;5009;50.656;7.188;2024-02-23T16:17:04;8.90;94.90
9941;DHT22;5009;50.656;7.188;2024-02-23T16:19:30;8.80;94.90
9941;DHT22;5009;50.656;7.188;2024-02-23T16:21:55;8.80;95.10
9941;DHT22;5009;50.656;7.188;2024-02-23T16:24:21;8.70;95.10
9941;DHT22;5009;50.656;7.188;2024-02-23T16:26:47;8.60;95.00
9941;DHT22;5009;50.656;7.188;2024-02-23T16:29:12;8.50;95.10
9941;DHT22;5009;50.656;7.188;2024-02-23T16:31:38;8.50;95.60
9941;DHT22;5009;50.656;7.188;2024-02-23T16:34:04;8.40;95.30
9941;DHT22;5009;50.656;7.188;2024-02-23T16:36:29;8.40;95.30
9941;DHT22;5009;50.656;7.188;2024-02-23T16:38:55;8.40;95.00
9941;DHT22;5009;50.656;7.188;2024-02-23T16:41:22;8.30;95.10
9941;DHT22;5009;50.656;7.188;2024-02-23T16:43:48;8.30;94.60
9941;DHT22;5009;50.656;7.188;2024-02-23T16:46:14;8.30;94.60
9941;DHT22;5009;50.656;7.188;2024-02-23T16:48:40;8.20;94.70
9941;DHT22;5009;50.656;7.188;2024-02-23T16:51:05;8.20;94.80
9941;DHT22;5009;50.656;7.188;2024-02-23T16:53:31;8.20;95.00
9941;DHT22;5009;50.656;7.188;2024-02-23T16:55:57;8.10;94.80
9941;DHT22;5009;50.656;7.188;2024-02-23T16:58:29;8.10;94.60
9941;DHT22;5009;50.656;7.188;2024-02-23T17:01:00;8.10;94.70
9941;DHT22;5009;50.656;7.188;2024-02-23T17:03:26;8.10;94.70
9941;DHT22;5009;50.656;7.188;2024-02-23T17:05:52;8.10;94.50
9941;DHT22;5009;50.656;7.188;2024-02-23T17:08:18;8.10;94.80
9941;DHT22;5009;50.656;7.188;2024-02-23T17:10:43;8.10;94.60
9941;DHT22;5009;50.656;7.188;2024-02-23T17:13:09;8.10;94.70
9941;DHT22;5009;50.656;7.188;2024-02-23T17:15:34;8.10;94.60
9941;DHT22;5009;50.656;7.188;2024-02-23T17:18:00;8.10;94.40
9941;DHT22;5009;50.656;7.188;2024-02-23T17:20:26;8.10;94.40
9941;DHT22;5009;50.656;7.188;2024-02-23T17:22:52;8.10;94.50
9941;DHT22;5009;50.656;7.188;2024-02-23T17:25:18;8.10;94.40
9941;DHT22;5009;50.656;7.188;2024-02-23T17:27:44;8.10;94.50
9941;DHT22;5009;50.656;7.188;2024-02-23T17:30:10;8.10;94.60
9941;DHT22;5009;50.656;7.188;2024-02-23T17:32:36;8.10;94.60
9941;DHT22;5009;50.656;7.188;2024-02-23T17:35:02;8.10;94.60
9941;DHT22;5009;50.656;7.188;2024-02-23T17:37:28;8.10;94.70
9941;DHT22;5009;50.656;7.188;2024-02-23T17:39:55;8.10;94.80
9941;DHT22;5009;50.656;7.188;2024-02-23T17:42:21;8.10;94.80
9941;DHT22;5009;50.656;7.188;2024-02-23T17:44:47;8.10;94.70
9941;DHT22;5009;50.656;7.188;2024-02-23T17:47:13;8.10;94.60
9941;DHT22;5009;50.656;7.188;2024-02-23T17:49:38;8.10;94.50
9941;DHT22;5009;50.656;7.188;2024-02-23T17:52:04;8.10;94.60
9941;DHT22;5009;50.656;7.188;2024-02-23T17:54:30;8.00;94.80
9941;DHT22;5009;50.656;7.188;2024-02-23T17:56:55;8.00;94.80
9941;DHT22;5009;50.656;7.188;2024-02-23T17:59:21;8.00;95.00
9941;DHT22;5009;50.656;7.188;2024-02-23T18:01:47;8.00;95.20
9941;DHT22;5009;50.656;7.188;2024-02-23T18:04:13;8.00;95.20
9941;DHT22;5009;50.656;7.188;2024-02-23T18:06:39;8.00;95.30
9941;DHT22;5009;50.656;7.188;2024-02-23T18:09:04;8.00;95.50
9941;DHT22;5009;50.656;7.188;2024-02-23T18:11:31;8.10;95.60
9941;DHT22;5009;50.656;7.188;2024-02-23T18:13:57;8.00;95.40
9941;DHT22;5009;50.656;7.188;2024-02-23T18:16:22;8.00;95.40
9941;DHT22;5009;50.656;7.188;2024-02-23T18:18:49;7.90;95.30
9941;DHT22;5009;50.656;7.188;2024-02-23T18:21:16;7.90;95.60
9941;DHT22;5009;50.656;7.188;2024-02-23T18:23:46;7.80;95.90
9941;DHT22;5009;50.656;7.188;2024-02-23T18:26:15;7.80;96.60
9941;DHT22;5009;50.656;7.188;2024-02-23T18:28:40;7.70;96.90
9941;DHT22;5009;50.656;7.188;2024-02-23T18:31:06;7.70;97.20
9941;DHT22;5009;50.656;7.188;2024-02-23T18:33:32;7.60;97.40
9941;DHT22;5009;50.656;7.188;2024-02-23T18:35:58;7.50;97.70
9941;DHT22;5009;50.656;7.188;2024-02-23T18:38:23;7.50;98.00
9941;DHT22;5009;50.656;7.188;2024-02-23T18:40:49;7.50;98.20
9941;DHT22;5009;50.656;7.188;2024-02-23T18:43:14;7.50;98.60
9941;DHT22;5009;50.656;7.188;2024-02-23T18:45:40;7.40;98.90
9941;DHT22;5009;50.656;7.188;2024-02-23T18:48:06;7.40;99.20
9941;DHT22;5009;50.656;7.188;2024-02-23T18:50:32;7.40;99.50
9941;DHT22;5009;50.656;7.188;2024-02-23T18:52:57;7.30;99.90
9941;DHT22;5009;50.656;7.188;2024-02-23T18:55:23;7.30;99.90
9941;DHT22;5009;50.656;7.188;2024-02-23T18:57:48;7.40;99.90
9941;DHT22;5009;50.656;7.188;2024-02-23T19:00:15;7.30;99.90
9941;DHT22;5009;50.656;7.188;2024-02-23T19:02:41;7.40;99.90
9941;DHT22;5009;50.656;7.188;2024-02-23T19:05:07;7.40;99.90
9941;DHT22;5009;50.656;7.188;2024-02-23T19:07:33;7.40;99.90
9941;DHT22;5009;50.656;7.188;2024-02-23T19:09:58;7.50;99.90
9941;DHT22;5009;50.656;7.188;2024-02-23T19:12:24;7.60;99.90
9941;DHT22;5009;50.656;7.188;2024-02-23T19:14:49;7.60;99.90
9941;DHT22;5009;50.656;7.188;2024-02-23T19:17:15;7.70;99.90
9941;DHT22;5009;50.656;7.188;2024-02-23T19:19:41;7.70;99.90
9941;DHT22;5009;50.656;7.188;2024-02-23T19:22:06;7.60;99.90
9941;DHT22;5009;50.656;7.188;2024-02-23T19:24:32;7.60;99.90
9941;DHT22;5009;50.656;7.188;2024-02-23T19:26:57;7.50;99.90
9941;DHT22;5009;50.656;7.188;2024-02-23T19:29:24;7.50;99.90
9941;DHT22;5009;50.656;7.188;2024-02-23T19:31:50;7.40;99.90
9941;DHT22;5009;50.656;7.188;2024-02-23T19:34:16;7.40;99.90
9941;DHT22;5009;50.656;7.188;2024-02-23T19:36:41;7.40;99.90
9941;DHT22;5009;50.656;7.188;2024-02-23T19:39:07;7.30;99.90
9941;DHT22;5009;50.656;7.188;2024-02-23T19:41:33;7.30;99.90
9941;DHT22;5009;50.656;7.188;2024-02-23T19:43:59;7.30;99.90
9941;DHT22;5009;50.656;7.188;2024-02-23T19:46:26;7.30;99.90
9941;DHT22;5009;50.656;7.188;2024-02-23T19:48:51;7.30;99.90
9941;DHT22;5009;50.656;7.188;2024-02-23T19:51:17;7.30;99.90
9941;DHT22;5009;50.656;7.188;2024-02-23T19:53:42;7.30;99.90
9941;DHT22;5009;50.656;7.188;2024-02-23T19:56:11;7.30;99.90
9941;DHT22;5009;50.656;7.188;2024-02-23T19:58:38;7.20;99.90
9941;DHT22;5009;50.656;7.188;2024-02-23T20:01:03;7.20;99.90
9941;DHT22;5009;50.656;7.188;2024-02-23T20:03:29;7.20;99.90
9941;DHT22;5009;50.656;7.188;2024-02-23T20:05:54;7.20;99.90
9941;DHT22;5009;50.656;7.188;2024-02-23T20:08:20;7.20;99.90
9941;DHT22;5009;50.656;7.188;2024-02-23T20:10:46;7.20;99.90
9941;DHT22;5009;50.656;7.188;2024-02-23T20:13:11;7.20;99.90
9941;DHT22;5009;50.656;7.188;2024-02-23T20:15:37;7.20;99.90
9941;DHT22;5009;50.656;7.188;2024-02-23T20:18:03;7.30;99.90
9941;DHT22;5009;50.656;7.188;2024-02-23T20:20:29;7.30;99.90
9941;DHT22;5009;50.656;7.188;2024-02-23T20:22:55;7.30;99.90
9941;DHT22;5009;50.656;7.188;2024-02-23T20:25:21;7.20;99.90
9941;DHT22;5009;50.656;7.188;2024-02-23T20:27:46;7.20;99.90
9941;DHT22;5009;50.656;7.188;2024-02-23T20:30:12;7.20;99.90
9941;DHT22;5009;50.656;7.188;2024-02-23T20:32:38;7.20;99.90
9941;DHT22;5009;50.656;7.188;2024-02-23T20:35:04;7.20;99.90
9941;DHT22;5009;50.656;7.188;2024-02-23T20:37:32;7.10;99.90
9941;DHT22;5009;50.656;7.188;2024-02-23T20:39:58;7.10;99.90
9941;DHT22;5009;50.656;7.188;2024-02-23T20:42:24;7.00;99.90
9941;DHT22;5009;50.656;7.188;2024-02-23T20:44:49;6.90;99.90
9941;DHT22;5009;50.656;7.188;2024-02-23T20:47:15;6.90;99.90
9941;DHT22;5009;50.656;7.188;2024-02-23T20:49:40;6.90;99.90
9941;DHT22;5009;50.656;7.188;2024-02-23T20:52:08;7.00;99.90
9941;DHT22;5009;50.656;7.188;2024-02-23T20:54:38;6.90;99.90
9941;DHT22;5009;50.656;7.188;2024-02-23T20:57:08;7.00;99.90
9941;DHT22;5009;50.656;7.188;2024-02-23T20:59:33;7.00;99.90
9941;DHT22;5009;50.656;7.188;2024-02-23T21:01:59;7.00;99.90
9941;DHT22;5009;50.656;7.188;2024-02-23T21:04:24;7.00;99.90
9941;DHT22;5009;50.656;7.188;2024-02-23T21:06:50;6.90;99.90
9941;DHT22;5009;50.656;7.188;2024-02-23T21:09:15;6.90;99.90
9941;DHT22;5009;50.656;7.188;2024-02-23T21:11:41;6.90;99.90